»·PEaware :: UAL431 KSFO-KDEN

UAL431 :: KSFO-KDEN

FLIGHT INFORMATION

Flight Status: Arrived
Operator:
United Airlines
More flights by this operator :: More flights under this callsign
Pilot: Brandon G. (13)
Aircraft: BOEING 737-800
(B738)
More flights by this aircraft type
Origin: KSFO San Francisco Intl
United States
Destination: KDEN Denver Intl
United States
More flights between these airports :: More routes between these airports
Route: +TRUKN2 MOGEE Q124 BVL J154 TCH J56 CHE KAILE2
File this flight plan on PilotEdge
Remarks:
Altitude:
(Current/Filed)
37,000ft
Speed:
(Current/Filed)
452kts
Departed: 22-Aug-17 08:41 AM
Arrived: 22-Aug-17 10:47 AM
Distance/Time
Traveled:
838nm/2:06
Distance/Time
To Go:
Arrived

Flight Plot

Page will automatically refresh every two minutes.

Flight plan parsing failed; only flown route is shown


Map Options




Map Legend


Flown Route
Filed Route
Departure Airport
Arrival Airport
Navaid (VOR, NDB)
Fix

Horizontal Profiles

Position Reports

Time Latitude Longitude Heading Altitude Ground
Speed
22-Aug-17 07:44 37.617970 -122.388460 140 20ft 0kts
22-Aug-17 07:45 37.617932 -122.388421 140 20ft 0kts
22-Aug-17 07:46 37.617932 -122.388421 140 20ft 0kts
22-Aug-17 07:47 37.617932 -122.388421 140 20ft 0kts
22-Aug-17 07:48 37.617932 -122.388421 140 20ft 0kts
22-Aug-17 07:49 37.617932 -122.388421 140 20ft 0kts
22-Aug-17 07:50 37.617932 -122.388421 140 20ft 0kts
22-Aug-17 07:51 37.617932 -122.388421 140 21ft 0kts
22-Aug-17 07:52 37.617932 -122.388421 140 21ft 0kts
22-Aug-17 07:53 37.617932 -122.388421 140 21ft 0kts
22-Aug-17 07:54 37.617932 -122.388421 140 21ft 0kts
22-Aug-17 07:55 37.617932 -122.388421 140 21ft 0kts
22-Aug-17 07:56 37.617932 -122.388421 140 21ft 0kts
22-Aug-17 07:57 37.617932 -122.388421 140 21ft 0kts
22-Aug-17 07:58 37.617932 -122.388421 140 21ft 0kts
22-Aug-17 07:59 37.617932 -122.388421 140 21ft 0kts
22-Aug-17 08:00 37.617932 -122.388421 140 21ft 0kts
22-Aug-17 08:01 37.617932 -122.388421 140 21ft 0kts
22-Aug-17 08:02 37.617932 -122.388421 140 21ft 0kts
22-Aug-17 08:03 37.617932 -122.388421 140 21ft 0kts
22-Aug-17 08:04 37.617932 -122.388421 140 21ft 0kts
22-Aug-17 08:05 37.617932 -122.388421 140 21ft 0kts
22-Aug-17 08:06 37.617932 -122.388421 140 21ft 0kts
22-Aug-17 08:07 37.617932 -122.388421 140 21ft 0kts
22-Aug-17 08:08 37.617932 -122.388421 140 21ft 0kts
22-Aug-17 08:09 37.617932 -122.388421 140 21ft 0kts
22-Aug-17 08:10 37.617932 -122.388421 140 21ft 0kts
22-Aug-17 08:11 37.617932 -122.388421 140 21ft 0kts
22-Aug-17 08:12 37.617932 -122.388421 140 21ft 0kts
22-Aug-17 08:13 37.617932 -122.388421 140 21ft 0kts
22-Aug-17 08:14 37.617932 -122.388421 140 21ft 0kts
22-Aug-17 08:15 37.617932 -122.388421 140 21ft 0kts
22-Aug-17 08:16 37.617932 -122.388421 140 21ft 0kts
22-Aug-17 08:17 37.617932 -122.388421 140 21ft 0kts
22-Aug-17 08:18 37.617932 -122.388421 140 21ft 0kts
22-Aug-17 08:19 37.617932 -122.388421 140 21ft 0kts
22-Aug-17 08:20 37.617932 -122.388421 140 21ft 0kts
22-Aug-17 08:21 37.617932 -122.388421 140 21ft 0kts
22-Aug-17 08:22 37.617932 -122.388421 140 21ft 0kts
22-Aug-17 08:23 37.617932 -122.388421 140 21ft 0kts
22-Aug-17 08:24 37.617932 -122.388421 140 21ft 0kts
22-Aug-17 08:25 37.617932 -122.388421 140 21ft 0kts
22-Aug-17 08:26 37.617932 -122.388421 140 21ft 0kts
22-Aug-17 08:27 37.617932 -122.388421 140 21ft 0kts
22-Aug-17 08:28 37.617932 -122.388421 140 21ft 0kts
22-Aug-17 08:29 37.617932 -122.388421 140 21ft 0kts
22-Aug-17 08:30 37.617932 -122.388421 140 21ft 0kts
22-Aug-17 08:31 37.617932 -122.388421 140 21ft 0kts
22-Aug-17 08:32 37.617932 -122.388421 140 21ft 0kts
22-Aug-17 08:33 37.617999 -122.388491 140 21ft 2kts
22-Aug-17 08:34 37.618725 -122.388645 203 21ft 1kts
22-Aug-17 08:35 37.618730 -122.388642 203 21ft 0kts
22-Aug-17 08:36 37.618729 -122.388643 203 21ft 0kts
22-Aug-17 08:37 37.618375 -122.389701 308 21ft 1kts
22-Aug-17 08:38 37.619475 -122.391762 296 21ft 0kts
22-Aug-17 08:39 37.621596 -122.391533 27 21ft 23kts
22-Aug-17 08:40 37.621499 -122.386319 116 21ft 28kts
22-Aug-17 08:41 37.615317 -122.380525 211 21ft 33kts
22-Aug-17 08:42 37.608800 -122.384486 132 21ft 13kts
22-Aug-17 08:43 37.608504 -122.383843 117 21ft 0kts
22-Aug-17 08:44 37.611544 -122.380614 26 21ft 37kts
22-Aug-17 08:45 37.639104 -122.360272 37 1150ft 180kts
22-Aug-17 08:46 37.671123 -122.303299 55 3629ft 245kts
22-Aug-17 08:47 37.712479 -122.225503 51 6661ft 283kts
22-Aug-17 08:48 37.756920 -122.178706 35 9149ft 293kts
22-Aug-17 08:49 37.826191 -122.116492 37 11683ft 337kts
22-Aug-17 08:50 37.903976 -122.034493 50 13844ft 376kts
22-Aug-17 08:51 37.972849 -121.931607 51 16538ft 390kts
22-Aug-17 08:52 38.044427 -121.824811 51 18955ft 405kts
22-Aug-17 08:53 38.118789 -121.714234 51 21162ft 417kts
22-Aug-17 08:54 38.195388 -121.600867 51 23102ft 428kts
22-Aug-17 08:55 38.273410 -121.483991 51 24807ft 439kts
22-Aug-17 08:56 38.353032 -121.363375 53 26366ft 448kts
22-Aug-17 08:57 38.430757 -121.237290 53 27773ft 457kts
22-Aug-17 08:58 38.509997 -121.108291 53 29044ft 465kts
22-Aug-17 08:59 38.590062 -120.978263 53 30545ft 464kts
22-Aug-17 09:00 38.669495 -120.849006 53 32125ft 460kts
22-Aug-17 09:01 38.748315 -120.719984 53 33589ft 457kts
22-Aug-17 09:02 38.826249 -120.591811 53 34895ft 456kts
22-Aug-17 09:03 38.890922 -120.485021 53 35914ft 455kts
22-Aug-17 09:04 38.981507 -120.334885 53 37205ft 454kts
22-Aug-17 09:05 39.059165 -120.205582 53 37378ft 456kts
22-Aug-17 09:06 39.136400 -120.076473 53 37385ft 454kts
22-Aug-17 09:07 39.213183 -119.947594 54 37370ft 456kts
22-Aug-17 09:08 39.290123 -119.817931 54 37346ft 455kts
22-Aug-17 09:09 39.354341 -119.709299 54 37321ft 455kts
22-Aug-17 09:10 39.443645 -119.557597 54 37298ft 455kts
22-Aug-17 09:11 39.520339 -119.426763 54 37287ft 455kts
22-Aug-17 09:12 39.596613 -119.296093 54 37277ft 455kts
22-Aug-17 09:13 39.660125 -119.186880 54 37272ft 455kts
22-Aug-17 09:14 39.736700 -119.055184 54 37267ft 456kts
22-Aug-17 09:15 39.825352 -118.901179 54 37269ft 456kts
22-Aug-17 09:16 39.897610 -118.765960 62 37265ft 455kts
22-Aug-17 09:17 39.947016 -118.644219 63 37261ft 455kts
22-Aug-17 09:18 40.005849 -118.498611 63 37260ft 454kts
22-Aug-17 09:19 40.064778 -118.353564 63 37261ft 453kts
22-Aug-17 09:20 40.123764 -118.207675 63 37264ft 453kts
22-Aug-17 09:21 40.182066 -118.061706 63 37268ft 453kts
22-Aug-17 09:22 40.225702 -117.908142 74 37273ft 451kts
22-Aug-17 09:23 40.261942 -117.750601 74 37280ft 451kts
22-Aug-17 09:24 40.297960 -117.593481 74 37288ft 451kts
22-Aug-17 09:25 40.334581 -117.435955 74 37293ft 451kts
22-Aug-17 09:26 40.370615 -117.278679 74 37297ft 451kts
22-Aug-17 09:27 40.406372 -117.121098 74 37300ft 452kts
22-Aug-17 09:28 40.442080 -116.962503 74 37300ft 452kts
22-Aug-17 09:29 40.477495 -116.804160 74 37302ft 453kts
22-Aug-17 09:30 40.512971 -116.645452 75 37305ft 453kts
22-Aug-17 09:31 40.547969 -116.485682 75 37313ft 454kts
22-Aug-17 09:32 40.572962 -116.323818 85 37326ft 452kts
22-Aug-17 09:33 40.585171 -116.158730 85 37338ft 452kts
22-Aug-17 09:34 40.597248 -115.994061 85 37346ft 453kts
22-Aug-17 09:35 40.609785 -115.828838 85 37348ft 454kts
22-Aug-17 09:36 40.622038 -115.662942 86 37354ft 454kts
22-Aug-17 09:37 40.633882 -115.497556 86 37355ft 454kts
22-Aug-17 09:38 40.645462 -115.332007 86 37356ft 455kts
22-Aug-17 09:39 40.656841 -115.165731 86 37356ft 455kts
22-Aug-17 09:40 40.667957 -114.999718 86 37352ft 456kts
22-Aug-17 09:41 40.679177 -114.832913 86 37344ft 456kts
22-Aug-17 09:42 40.689753 -114.666272 86 37325ft 457kts
22-Aug-17 09:43 40.700035 -114.499313 87 37315ft 458kts
22-Aug-17 09:44 40.706296 -114.331355 88 37307ft 458kts
22-Aug-17 09:45 40.712221 -114.163718 88 37301ft 459kts
22-Aug-17 09:46 40.718449 -113.995888 88 37300ft 459kts
22-Aug-17 09:47 40.723893 -113.826855 89 37300ft 461kts
22-Aug-17 09:48 40.732865 -113.658427 85 37300ft 462kts
22-Aug-17 09:49 40.745853 -113.491963 85 37299ft 446kts
22-Aug-17 09:50 40.757831 -113.329803 86 37301ft 445kts
22-Aug-17 09:51 40.770145 -113.167384 85 37301ft 446kts
22-Aug-17 09:52 40.782037 -113.004222 85 37301ft 446kts
22-Aug-17 09:53 40.793562 -112.841176 86 37303ft 447kts
22-Aug-17 09:54 40.804837 -112.677851 86 37302ft 448kts
22-Aug-17 09:55 40.815929 -112.513635 86 37306ft 448kts
22-Aug-17 09:56 40.827000 -112.349662 86 37309ft 450kts
22-Aug-17 09:57 40.837665 -112.184832 86 37301ft 449kts
22-Aug-17 09:58 40.847875 -112.020467 86 37295ft 449kts
22-Aug-17 09:59 40.844000 -111.855763 95 37297ft 451kts
22-Aug-17 10:00 40.834918 -111.690464 95 37317ft 450kts
22-Aug-17 10:01 40.825734 -111.525722 95 37342ft 450kts
22-Aug-17 10:02 40.817138 -111.360873 95 37375ft 451kts
22-Aug-17 10:03 40.807980 -111.195358 95 37401ft 452kts
22-Aug-17 10:04 40.798507 -111.030228 95 37412ft 452kts
22-Aug-17 10:05 40.788719 -110.864417 95 37440ft 453kts
22-Aug-17 10:06 40.778694 -110.698727 96 37444ft 454kts
22-Aug-17 10:07 40.768393 -110.532597 96 37443ft 458kts
22-Aug-17 10:08 40.757492 -110.360917 96 37433ft 475kts
22-Aug-17 10:09 40.746246 -110.187916 96 37417ft 474kts
22-Aug-17 10:10 40.734745 -110.015020 96 37405ft 474kts
22-Aug-17 10:11 40.722811 -109.839703 96 37387ft 485kts
22-Aug-17 10:12 40.710539 -109.663179 96 37376ft 481kts
22-Aug-17 10:13 40.697981 -109.487583 96 37366ft 481kts
22-Aug-17 10:14 40.685186 -109.311843 97 37363ft 482kts
22-Aug-17 10:15 40.672302 -109.135795 97 37366ft 486kts
22-Aug-17 10:16 40.658847 -108.959537 97 37361ft 483kts
22-Aug-17 10:17 40.645026 -108.782716 97 37367ft 484kts
22-Aug-17 10:18 40.631139 -108.605958 97 37381ft 491kts
22-Aug-17 10:19 40.616854 -108.426987 97 37390ft 488kts
22-Aug-17 10:20 40.602687 -108.249517 97 37386ft 487kts
22-Aug-17 10:21 40.587519 -108.070803 98 37394ft 492kts
22-Aug-17 10:22 40.572120 -107.891595 98 37405ft 494kts
22-Aug-17 10:23 40.556429 -107.712601 97 37412ft 491kts
22-Aug-17 10:24 40.540925 -107.533071 98 37413ft 494kts
22-Aug-17 10:25 40.524551 -107.354047 98 37424ft 495kts
22-Aug-17 10:26 40.512913 -107.174254 95 37446ft 493kts
22-Aug-17 10:27 40.503168 -106.994687 95 37454ft 492kts
22-Aug-17 10:28 40.493343 -106.814547 94 36425ft 493kts
22-Aug-17 10:29 40.483759 -106.635410 95 33406ft 487kts
22-Aug-17 10:30 40.473441 -106.460173 95 30705ft 473kts
22-Aug-17 10:31 40.463382 -106.291791 94 28512ft 454kts
22-Aug-17 10:32 40.453419 -106.129296 95 26373ft 438kts
22-Aug-17 10:33 40.442413 -105.972950 99 24264ft 423kts
22-Aug-17 10:34 40.418754 -105.824540 102 22231ft 409kts
22-Aug-17 10:35 40.395696 -105.680413 102 20138ft 397kts
22-Aug-17 10:36 40.373690 -105.542133 102 18705ft 370kts
22-Aug-17 10:37 40.353822 -105.417042 100 18067ft 334kts
22-Aug-17 10:38 40.337919 -105.297871 100 16710ft 329kts
22-Aug-17 10:39 40.321877 -105.180857 100 15370ft 324kts
22-Aug-17 10:40 40.305782 -105.065839 100 14350ft 309kts
22-Aug-17 10:41 40.291262 -104.962529 100 13898ft 270kts
22-Aug-17 10:42 40.277798 -104.866670 101 12516ft 265kts
22-Aug-17 10:43 40.263772 -104.772460 106 11096ft 261kts
22-Aug-17 10:44 40.227442 -104.695940 147 10273ft 247kts
22-Aug-17 10:45 40.163116 -104.683520 181 10032ft 228kts
22-Aug-17 10:46 40.102478 -104.684359 179 9076ft 209kts
22-Aug-17 10:47 40.049633 -104.685001 178 8256ft 167kts
22-Aug-17 10:48 40.003922 -104.685558 178 7511ft 169kts
22-Aug-17 10:49 39.956852 -104.686129 177 6641ft 167kts
22-Aug-17 10:50 39.911552 -104.686677 177 5801ft 158kts
22-Aug-17 10:51 39.877815 -104.686629 153 5439ft 24kts
22-Aug-17 10:52 39.874931 -104.685004 173 5439ft 13kts
22-Aug-17 10:53 39.871041 -104.683975 140 5439ft 14kts
22-Aug-17 10:54 39.866356 -104.683881 178 5439ft 8kts
22-Aug-17 10:55 39.864420 -104.683851 178 5439ft 20kts
22-Aug-17 10:56 39.861422 -104.679728 89 5439ft 32kts
22-Aug-17 10:57 39.862594 -104.676318 26 5439ft 0kts

Navigation Log

Ident Type
Flight plan parsing failed, navigation log unavailable